createdAt,value
2018-05-31T00:00:15.849Z,19.20
2018-05-31T00:02:42.689Z,19.00
2018-05-31T00:05:09.548Z,18.90
2018-05-31T00:07:35.645Z,18.90
2018-05-31T00:10:01.769Z,18.80
2018-05-31T00:12:27.878Z,18.70
2018-05-31T00:14:53.991Z,18.70
2018-05-31T00:17:20.113Z,18.60
2018-05-31T00:19:46.209Z,18.60
2018-05-31T00:22:12.322Z,18.50
2018-05-31T00:24:39.157Z,18.30
2018-05-31T00:27:05.997Z,18.30
2018-05-31T00:29:32.853Z,18.20
2018-05-31T00:31:59.701Z,18.20
2018-05-31T00:34:26.537Z,18.10
2018-05-31T00:36:53.384Z,18.00
2018-05-31T00:39:20.260Z,17.90
2018-05-31T00:41:46.333Z,18.00
2018-05-31T00:44:12.438Z,17.90
2018-05-31T00:46:38.538Z,17.80
2018-05-31T00:49:04.642Z,17.80
2018-05-31T00:51:30.758Z,17.80
2018-05-31T00:53:56.870Z,17.70
2018-05-31T00:56:22.970Z,17.70
2018-05-31T00:58:49.080Z,17.70
2018-05-31T01:01:15.194Z,17.60
2018-05-31T01:03:41.310Z,17.60
2018-05-31T01:06:07.405Z,17.60
2018-05-31T01:08:33.509Z,17.50
2018-05-31T01:10:59.615Z,17.40
2018-05-31T01:13:25.722Z,17.40
2018-05-31T01:15:51.835Z,17.40
2018-05-31T01:18:17.949Z,17.40
2018-05-31T01:20:44.049Z,17.40
2018-05-31T01:23:10.162Z,17.40
2018-05-31T01:25:36.274Z,17.30
2018-05-31T01:28:02.378Z,17.30
2018-05-31T01:30:28.495Z,17.30
2018-05-31T01:32:54.602Z,17.30
2018-05-31T01:35:20.759Z,17.30
2018-05-31T01:37:46.874Z,17.30
2018-05-31T01:40:12.966Z,17.30
2018-05-31T01:42:39.066Z,17.30
2018-05-31T01:45:05.154Z,17.30
2018-05-31T01:47:31.266Z,17.30
2018-05-31T01:49:57.374Z,17.20
2018-05-31T01:52:24.226Z,17.20
2018-05-31T01:54:51.057Z,17.30
2018-05-31T01:57:17.905Z,17.30
2018-05-31T01:59:44.758Z,17.30
2018-05-31T02:02:11.594Z,17.30
2018-05-31T02:04:38.462Z,17.30
2018-05-31T02:07:04.552Z,17.20
2018-05-31T02:09:30.663Z,17.20
2018-05-31T02:11:56.775Z,17.20
2018-05-31T02:14:22.894Z,17.10
2018-05-31T02:16:48.993Z,17.10
2018-05-31T02:19:15.098Z,17.00
2018-05-31T02:21:41.934Z,16.90
2018-05-31T02:24:08.785Z,16.90
2018-05-31T02:26:35.625Z,16.80
2018-05-31T02:29:02.465Z,16.80
2018-05-31T02:31:29.318Z,16.80
2018-05-31T02:33:55.426Z,16.80
2018-05-31T02:36:22.282Z,16.70
2018-05-31T02:38:49.147Z,16.80
2018-05-31T02:41:15.254Z,16.70
2018-05-31T02:43:42.122Z,16.90
2018-05-31T02:46:08.230Z,16.90
2018-05-31T02:48:34.337Z,16.90
2018-05-31T02:51:00.434Z,17.00
2018-05-31T02:53:26.542Z,17.10
2018-05-31T02:55:53.222Z,17.10
2018-05-31T02:58:19.324Z,17.20
2018-05-31T03:00:45.429Z,17.10
2018-05-31T03:03:11.530Z,17.10
2018-05-31T03:05:37.651Z,17.20
2018-05-31T03:08:03.746Z,17.20
2018-05-31T03:10:29.846Z,17.20
2018-05-31T03:12:55.955Z,17.30
2018-05-31T03:15:22.078Z,17.30
2018-05-31T03:17:48.214Z,17.40
2018-05-31T03:20:14.299Z,17.40
2018-05-31T03:22:41.148Z,17.60
2018-05-31T03:25:08.002Z,17.70
2018-05-31T03:27:34.103Z,17.70
2018-05-31T03:30:00.950Z,17.80
2018-05-31T03:32:27.793Z,17.90
2018-05-31T03:34:54.633Z,18.00
2018-05-31T03:37:21.467Z,18.00
2018-05-31T03:39:47.571Z,18.00
2018-05-31T03:42:13.665Z,18.10
2018-05-31T03:44:39.777Z,18.10
2018-05-31T03:47:05.878Z,18.10
2018-05-31T03:49:32.730Z,18.20
2018-05-31T03:51:59.577Z,18.20
2018-05-31T03:54:26.427Z,18.20
2018-05-31T03:56:52.530Z,18.20
2018-05-31T03:59:18.638Z,18.20
2018-05-31T04:01:44.746Z,18.30
2018-05-31T04:04:13.013Z,18.40
2018-05-31T04:06:39.126Z,18.40
2018-05-31T04:09:05.246Z,18.40
2018-05-31T04:11:31.346Z,18.40
2018-05-31T04:13:58.190Z,18.50
2018-05-31T04:16:25.039Z,18.60
2018-05-31T04:18:51.883Z,18.60
2018-05-31T04:21:18.733Z,18.70
2018-05-31T04:23:44.834Z,18.70
2018-05-31T04:26:11.690Z,18.80
2018-05-31T04:28:38.537Z,18.90
2018-05-31T04:31:05.387Z,19.00
2018-05-31T04:33:31.489Z,19.00
2018-05-31T04:35:57.590Z,19.10
2018-05-31T04:38:23.689Z,19.20
2018-05-31T04:40:49.801Z,19.30
2018-05-31T04:43:15.910Z,19.40
2018-05-31T04:45:42.004Z,20.00
2018-05-31T04:48:08.103Z,21.60
2018-05-31T04:50:34.214Z,23.50
2018-05-31T04:53:00.313Z,25.20
2018-05-31T04:55:27.161Z,28.00
2018-05-31T04:57:53.265Z,27.90
2018-05-31T05:00:19.369Z,29.00
2018-05-31T05:02:45.482Z,29.90
2018-05-31T05:05:11.581Z,30.60
2018-05-31T05:07:37.693Z,31.20
2018-05-31T05:10:03.802Z,31.80
2018-05-31T05:12:30.678Z,32.80
2018-05-31T05:14:56.773Z,32.70
2018-05-31T05:17:23.621Z,33.90
2018-05-31T05:19:50.462Z,34.30
2018-05-31T05:22:17.309Z,34.70
2018-05-31T05:24:44.154Z,35.00
2018-05-31T05:27:11.010Z,35.30
2018-05-31T05:29:37.118Z,35.30
2018-05-31T05:32:03.977Z,35.80
2018-05-31T05:34:30.079Z,35.80
2018-05-31T05:36:56.185Z,36.20
2018-05-31T05:39:22.290Z,36.40
2018-05-31T05:41:48.402Z,36.60
2018-05-31T05:44:14.509Z,36.90
2018-05-31T05:46:40.626Z,37.10
2018-05-31T05:49:06.734Z,37.50
2018-05-31T05:51:32.834Z,37.70
2018-05-31T05:53:58.947Z,37.90
2018-05-31T05:56:25.067Z,38.10
2018-05-31T05:58:51.169Z,38.20
2018-05-31T06:01:17.282Z,38.30
2018-05-31T06:03:44.137Z,38.30
2018-05-31T06:06:10.238Z,38.30
2018-05-31T06:08:36.438Z,38.30
2018-05-31T06:17:02.403Z,38.80
2018-05-31T06:19:28.506Z,38.90
2018-05-31T06:21:54.602Z,39.00
2018-05-31T06:24:20.715Z,39.30
2018-05-31T06:26:47.558Z,39.70
2018-05-31T06:29:14.394Z,39.90
2018-05-31T06:31:41.242Z,40.10
2018-05-31T06:34:08.097Z,40.30
2018-05-31T06:36:34.202Z,40.30
2018-05-31T06:39:00.306Z,40.30
2018-05-31T06:41:26.396Z,40.20
2018-05-31T06:43:52.498Z,40.20
2018-05-31T06:46:19.329Z,40.30
2018-05-31T06:48:45.430Z,40.30
2018-05-31T06:51:11.514Z,40.40
2018-05-31T06:53:38.246Z,40.30
2018-05-31T06:56:05.080Z,40.10
2018-05-31T06:58:31.917Z,40.20
2018-05-31T07:00:58.757Z,40.00
2018-05-31T07:03:25.606Z,39.90
2018-05-31T07:05:52.449Z,39.80
2018-05-31T07:08:19.307Z,39.50
2018-05-31T07:10:46.138Z,38.80
2018-05-31T07:13:12.994Z,38.10
2018-05-31T07:15:39.827Z,38.30
2018-05-31T07:18:06.658Z,38.50
2018-05-31T07:20:32.753Z,38.40
2018-05-31T07:22:58.907Z,38.50
2018-05-31T07:25:24.997Z,38.50
2018-05-31T07:27:51.086Z,38.40
2018-05-31T07:30:17.182Z,38.50
2018-05-31T07:32:43.284Z,38.60
2018-05-31T07:35:09.391Z,38.60
2018-05-31T07:37:35.489Z,38.60
2018-05-31T07:40:01.599Z,38.50
2018-05-31T07:42:28.447Z,38.40
2018-05-31T07:44:55.297Z,38.20
2018-05-31T07:47:22.121Z,38.00
2018-05-31T07:49:48.960Z,38.00
2018-05-31T07:52:15.051Z,37.90
2018-05-31T07:54:41.167Z,37.90
2018-05-31T07:57:22.602Z,37.80
2018-05-31T07:59:49.452Z,37.80
2018-05-31T08:02:16.291Z,37.80
2018-05-31T08:04:43.122Z,37.70
2018-05-31T08:07:09.201Z,37.70
2018-05-31T08:09:35.316Z,37.70
2018-05-31T08:12:01.415Z,37.60
2018-05-31T08:14:28.249Z,37.50
2018-05-31T08:16:54.353Z,37.50
2018-05-31T08:19:20.464Z,37.60
2018-05-31T08:21:46.554Z,37.70
2018-05-31T08:24:12.666Z,37.80
2018-05-31T08:26:39.510Z,37.80
2018-05-31T08:29:06.330Z,37.80
2018-05-31T08:31:33.212Z,37.70
2018-05-31T08:33:59.245Z,37.90
2018-05-31T08:36:25.340Z,37.90
2018-05-31T08:38:52.191Z,37.90
2018-05-31T08:41:19.033Z,37.80
2018-05-31T08:43:45.868Z,37.70
2018-05-31T08:46:12.707Z,37.60
2018-05-31T08:48:38.799Z,37.50
2018-05-31T08:51:04.936Z,37.50
2018-05-31T08:53:31.813Z,37.60
2018-05-31T08:55:58.658Z,37.90
2018-05-31T08:58:25.489Z,38.20
2018-05-31T09:00:51.591Z,38.20
2018-05-31T09:03:17.690Z,38.40
2018-05-31T09:05:43.794Z,38.60
2018-05-31T09:08:09.895Z,38.80
2018-05-31T09:10:35.990Z,38.80
2018-05-31T09:13:02.087Z,38.80
2018-05-31T09:15:28.189Z,38.80
2018-05-31T09:17:55.021Z,38.60
2018-05-31T09:20:21.872Z,38.70
2018-05-31T09:22:48.703Z,38.90
2018-05-31T09:25:22.186Z,38.90
2018-05-31T09:27:51.930Z,39.10
2018-05-31T09:30:18.763Z,39.20
2018-05-31T09:32:45.600Z,39.20
2018-05-31T09:35:11.686Z,39.20
2018-05-31T09:37:48.775Z,39.20
2018-05-31T09:40:14.963Z,39.40
2018-05-31T09:43:00.098Z,39.40
2018-05-31T09:45:26.193Z,39.30
2018-05-31T09:48:03.078Z,39.40
2018-05-31T09:50:29.184Z,39.60
2018-05-31T09:52:55.287Z,39.80
2018-05-31T09:55:28.522Z,40.00
2018-05-31T09:57:54.714Z,40.00
2018-05-31T10:00:20.818Z,40.20
2018-05-31T10:03:01.678Z,40.00
2018-05-31T10:05:46.135Z,40.00
2018-05-31T10:08:42.043Z,40.10
2018-05-31T10:11:08.146Z,40.10
2018-05-31T10:13:34.258Z,40.10
2018-05-31T10:16:18.560Z,40.00
2018-05-31T10:18:44.655Z,39.90
2018-05-31T10:21:10.741Z,40.10
2018-05-31T10:23:54.782Z,40.20
2018-05-31T10:26:22.653Z,40.00
2018-05-31T10:31:50.670Z,40.00
2018-05-31T10:34:16.771Z,39.90
2018-05-31T10:40:09.411Z,40.10
2018-05-31T10:42:36.990Z,40.20
2018-05-31T10:45:05.893Z,40.30
2018-05-31T10:47:32.736Z,40.20
2018-05-31T10:49:59.570Z,40.10
2018-05-31T10:52:26.414Z,40.00
2018-05-31T10:54:53.233Z,40.00
2018-05-31T10:57:19.323Z,40.00
2018-05-31T10:59:45.418Z,39.80
2018-05-31T11:02:11.533Z,39.60
2018-05-31T11:04:38.377Z,39.30
2018-05-31T11:07:05.202Z,39.30
2018-05-31T11:09:32.050Z,39.20
2018-05-31T11:11:58.135Z,39.20
2018-05-31T11:14:24.243Z,39.00
2018-05-31T11:16:50.850Z,38.90
2018-05-31T11:19:17.689Z,38.70
2018-05-31T11:21:44.550Z,38.80
2018-05-31T11:24:14.982Z,38.80
2018-05-31T11:26:41.069Z,38.70
2018-05-31T11:29:07.175Z,38.60
2018-05-31T11:31:33.276Z,38.70
2018-05-31T11:33:59.374Z,38.80
2018-05-31T11:36:26.237Z,39.00
2018-05-31T11:38:52.342Z,39.00
2018-05-31T11:41:19.187Z,39.20
2018-05-31T11:43:46.029Z,39.30
2018-05-31T11:46:12.858Z,39.50
2018-05-31T11:48:39.698Z,39.60
2018-05-31T11:51:05.774Z,39.60
2018-05-31T11:53:31.885Z,39.60
2018-05-31T11:55:57.961Z,39.70
2018-05-31T11:58:24.060Z,39.90
2018-05-31T12:00:50.157Z,40.10
2018-05-31T12:03:16.266Z,40.30
2018-05-31T12:05:43.099Z,40.40
2018-05-31T12:08:09.961Z,40.40
2018-05-31T12:10:36.040Z,40.30
2018-05-31T12:13:02.138Z,40.30
2018-05-31T12:15:28.245Z,40.20
2018-05-31T12:17:54.340Z,40.10
2018-05-31T12:20:20.440Z,40.20
2018-05-31T12:22:46.539Z,40.20
2018-05-31T12:25:12.633Z,40.30
2018-05-31T12:27:39.470Z,40.20
2018-05-31T12:30:06.298Z,40.20
2018-05-31T12:32:32.390Z,40.20
2018-05-31T12:34:58.486Z,40.30
2018-05-31T12:37:24.577Z,40.40
2018-05-31T12:39:50.666Z,40.40
2018-05-31T12:42:16.752Z,40.50
2018-05-31T12:44:43.586Z,40.70
2018-05-31T12:47:10.422Z,40.60
2018-05-31T12:49:36.518Z,40.60
2018-05-31T12:52:02.598Z,40.70
2018-05-31T12:54:28.697Z,40.60
2018-05-31T12:56:54.785Z,40.60
2018-05-31T12:59:20.873Z,40.70
2018-05-31T13:01:46.965Z,40.60
2018-05-31T13:04:13.122Z,40.50
2018-05-31T13:06:39.966Z,40.70
2018-05-31T13:09:06.802Z,40.70
2018-05-31T13:11:33.645Z,40.70
2018-05-31T13:14:00.465Z,40.80
2018-05-31T13:16:26.569Z,40.80
2018-05-31T13:18:52.674Z,40.90
2018-05-31T13:21:18.774Z,40.80
2018-05-31T13:23:45.590Z,40.30
2018-05-31T13:26:11.682Z,40.30
2018-05-31T13:28:37.774Z,40.20
2018-05-31T13:31:03.872Z,40.10
2018-05-31T13:33:30.701Z,40.70
2018-05-31T13:35:57.531Z,40.90
2018-05-31T13:38:23.638Z,40.90
2018-05-31T13:40:49.735Z,41.10
2018-05-31T13:43:15.826Z,41.30
2018-05-31T13:45:41.924Z,41.40
2018-05-31T13:48:09.375Z,41.40
2018-05-31T13:50:35.474Z,41.20
2018-05-31T13:53:01.566Z,41.10
2018-05-31T13:55:27.671Z,41.10
2018-05-31T13:57:53.757Z,41.30
2018-05-31T14:00:19.854Z,41.40
2018-05-31T14:02:46.690Z,41.60
2018-05-31T14:05:12.790Z,41.60
2018-05-31T14:07:38.890Z,41.60
2018-05-31T14:10:04.969Z,41.70
2018-05-31T14:12:31.066Z,41.80
2018-05-31T14:14:57.145Z,41.90
2018-05-31T14:17:23.241Z,42.10
2018-05-31T14:19:49.318Z,42.10
2018-05-31T14:22:15.457Z,42.20
2018-05-31T14:24:41.550Z,42.20
2018-05-31T14:27:07.650Z,42.20
2018-05-31T14:29:33.737Z,42.00
2018-05-31T14:31:59.834Z,41.90
2018-05-31T14:34:25.925Z,41.80
2018-05-31T14:36:52.017Z,41.80
2018-05-31T14:39:18.121Z,41.80
2018-05-31T14:41:45.232Z,41.80
2018-05-31T14:44:12.067Z,41.80
2018-05-31T14:46:38.904Z,41.80
2018-05-31T14:49:04.999Z,41.80
2018-05-31T14:51:31.089Z,41.70
2018-05-31T14:53:57.178Z,41.60
2018-05-31T14:56:23.279Z,41.50
2018-05-31T14:58:49.365Z,41.30
2018-05-31T15:01:15.453Z,41.30
2018-05-31T15:03:41.558Z,41.30
2018-05-31T15:06:07.641Z,41.40
2018-05-31T15:08:33.737Z,41.40
2018-05-31T15:10:59.824Z,41.30
2018-05-31T15:13:25.921Z,41.10
2018-05-31T15:15:52.015Z,41.10
2018-05-31T15:18:18.118Z,41.30
2018-05-31T15:20:44.216Z,41.10
2018-05-31T15:23:10.311Z,41.00
2018-05-31T15:25:37.141Z,40.80
2018-05-31T15:28:03.237Z,40.70
2018-05-31T15:30:29.322Z,40.60
2018-05-31T15:32:55.418Z,40.30
2018-05-31T15:35:21.507Z,39.90
2018-05-31T15:37:47.618Z,39.80
2018-05-31T15:40:13.717Z,39.80
2018-05-31T15:42:40.553Z,39.90
2018-05-31T15:45:07.377Z,39.90
2018-05-31T15:47:58.326Z,39.90
2018-05-31T15:50:24.419Z,39.60
2018-05-31T15:52:51.263Z,38.60
2018-05-31T15:55:18.094Z,38.00
2018-05-31T15:57:44.185Z,38.10
2018-05-31T16:00:10.282Z,37.40
2018-05-31T16:02:36.391Z,36.80
2018-05-31T16:05:03.221Z,35.70
2018-05-31T16:07:30.075Z,35.10
2018-05-31T16:09:56.914Z,34.60
2018-05-31T16:12:23.008Z,34.60
2018-05-31T16:14:49.097Z,34.20
2018-05-31T16:17:15.190Z,33.80
2018-05-31T16:19:42.030Z,33.10
2018-05-31T16:22:08.861Z,32.80
2018-05-31T16:24:34.954Z,32.70
2018-05-31T16:27:01.042Z,32.50
2018-05-31T16:29:27.893Z,31.90
2018-05-31T16:31:53.970Z,31.90
2018-05-31T16:34:20.078Z,31.80
2018-05-31T16:36:46.166Z,31.60
2018-05-31T16:39:12.265Z,31.40
2018-05-31T16:41:38.366Z,31.20
2018-05-31T16:44:14.732Z,31.10
2018-05-31T16:46:41.344Z,30.90
2018-05-31T16:49:07.459Z,30.80
2018-05-31T16:54:33.533Z,30.40
2018-05-31T16:56:59.633Z,30.30
2018-05-31T16:59:26.110Z,30.10
2018-05-31T17:01:52.235Z,30.00
2018-05-31T17:04:18.354Z,29.90
2018-05-31T17:06:44.433Z,29.90
2018-05-31T17:09:11.278Z,29.90
2018-05-31T17:11:37.370Z,29.90
2018-05-31T17:14:03.463Z,29.90
2018-05-31T17:16:29.545Z,29.80
2018-05-31T17:18:56.386Z,29.70
2018-05-31T17:21:23.217Z,29.60
2018-05-31T17:23:49.326Z,29.60
2018-05-31T17:26:15.422Z,29.50
2018-05-31T17:28:41.513Z,29.50
2018-05-31T17:31:08.357Z,29.40
2018-05-31T17:33:35.190Z,29.30
2018-05-31T17:36:02.040Z,29.30
2018-05-31T17:38:28.875Z,29.10
2018-05-31T17:40:55.709Z,29.00
2018-05-31T17:43:21.802Z,29.00
2018-05-31T17:45:47.907Z,28.90
2018-05-31T17:48:14.007Z,28.70
2018-05-31T17:50:40.845Z,28.40
2018-05-31T17:53:07.687Z,28.20
2018-05-31T17:55:34.526Z,28.10
2018-05-31T17:58:01.362Z,27.90
2018-05-31T18:00:27.463Z,27.90
2018-05-31T18:02:53.552Z,27.70
2018-05-31T18:05:19.663Z,27.50
2018-05-31T18:07:45.757Z,27.30
2018-05-31T18:10:13.341Z,26.90
2018-05-31T18:12:40.179Z,26.80
2018-05-31T18:15:07.030Z,26.70
2018-05-31T18:17:33.866Z,26.60
2018-05-31T18:20:00.698Z,26.40
2018-05-31T18:22:27.533Z,26.30
2018-05-31T18:24:53.622Z,26.30
2018-05-31T18:27:19.722Z,26.20
2018-05-31T18:29:45.839Z,26.10
2018-05-31T18:32:12.683Z,25.90
2018-05-31T18:34:38.801Z,25.90
2018-05-31T18:37:04.874Z,25.90
2018-05-31T18:39:30.978Z,25.80
2018-05-31T18:41:57.082Z,25.70
2018-05-31T18:44:23.919Z,25.50
2018-05-31T18:46:50.011Z,25.50
2018-05-31T18:49:16.103Z,25.50
2018-05-31T18:51:42.198Z,25.40
2018-05-31T18:54:09.030Z,25.30
2018-05-31T18:56:35.123Z,25.40
2018-05-31T18:59:01.209Z,25.30
2018-05-31T19:01:27.305Z,25.30
2018-05-31T19:03:53.402Z,25.30
2018-05-31T19:06:19.501Z,25.20
2018-05-31T19:08:45.606Z,25.20
2018-05-31T19:11:12.443Z,25.00
2018-05-31T19:13:45.298Z,25.00
2018-05-31T19:16:11.398Z,25.00
2018-05-31T19:21:45.300Z,24.70
2018-05-31T19:24:17.571Z,24.60
2018-05-31T19:26:43.675Z,24.50
2018-05-31T19:29:15.203Z,24.40
2018-05-31T19:31:41.300Z,24.40
2018-05-31T19:34:07.395Z,24.40
2018-05-31T19:36:39.745Z,24.30
2018-05-31T19:39:39.975Z,24.20
2018-05-31T19:42:34.532Z,24.10
2018-05-31T19:45:04.301Z,24.00
2018-05-31T19:47:35.026Z,24.00
2018-05-31T19:50:01.863Z,23.70
2018-05-31T19:52:38.502Z,23.60
2018-05-31T19:55:06.618Z,23.60
2018-05-31T19:57:32.718Z,23.50
2018-05-31T20:03:25.471Z,23.30
2018-05-31T20:05:51.577Z,23.30
2018-05-31T20:08:31.262Z,23.10
2018-05-31T20:10:57.346Z,23.10
2018-05-31T20:13:50.173Z,23.00
2018-05-31T20:16:16.273Z,23.00
2018-05-31T20:18:43.115Z,22.80
2018-05-31T20:21:09.958Z,22.70
2018-05-31T20:24:04.321Z,22.60
2018-05-31T20:26:30.427Z,22.60
2018-05-31T20:28:58.581Z,22.50
2018-05-31T20:34:43.018Z,22.40
2018-05-31T20:37:09.118Z,22.40
2018-05-31T20:39:43.226Z,22.30
2018-05-31T20:42:09.403Z,22.30
2018-05-31T20:44:46.442Z,22.20
2018-05-31T20:47:17.846Z,22.20
2018-05-31T20:50:11.245Z,22.10
2018-05-31T20:52:37.359Z,22.10
2018-05-31T20:55:03.554Z,22.10
2018-05-31T20:57:30.378Z,22.10
2018-05-31T20:59:57.240Z,22.10
2018-05-31T21:02:24.068Z,22.10
2018-05-31T21:05:05.034Z,22.20
2018-05-31T21:07:31.124Z,22.10
2018-05-31T21:09:57.225Z,22.10
2018-05-31T21:12:23.324Z,22.20
2018-05-31T21:14:50.164Z,22.20
2018-05-31T21:17:16.262Z,22.10
2018-05-31T21:25:44.225Z,22.20
2018-05-31T21:28:10.330Z,22.30
2018-05-31T21:30:37.170Z,22.30
2018-05-31T21:33:17.311Z,22.30
2018-05-31T21:35:43.605Z,22.30
2018-05-31T21:38:10.298Z,22.20
2018-05-31T21:40:37.137Z,22.20
2018-05-31T21:43:03.226Z,22.20
2018-05-31T21:45:29.328Z,22.20
2018-05-31T21:47:55.417Z,22.20
2018-05-31T21:50:22.254Z,22.20
2018-05-31T21:52:48.343Z,22.10
2018-05-31T21:55:14.437Z,22.10
2018-05-31T21:57:40.530Z,22.10
2018-05-31T22:00:06.638Z,22.00
2018-05-31T22:02:33.486Z,21.90
2018-05-31T22:04:59.594Z,21.90
2018-05-31T22:07:25.706Z,21.90
2018-05-31T22:09:51.809Z,21.80
2018-05-31T22:12:17.897Z,21.70
2018-05-31T22:14:44.002Z,21.70
2018-05-31T22:17:10.100Z,21.60
2018-05-31T22:19:36.199Z,21.60
2018-05-31T22:22:03.046Z,21.40
2018-05-31T22:24:29.885Z,21.40
2018-05-31T22:26:56.720Z,21.30
2018-05-31T22:29:23.549Z,21.20
2018-05-31T22:31:49.651Z,21.20
2018-05-31T22:34:15.833Z,21.10
2018-05-31T22:36:41.965Z,21.00
2018-05-31T22:39:08.790Z,20.90
2018-05-31T22:41:35.643Z,20.80
2018-05-31T22:44:01.730Z,20.80
2018-05-31T22:46:27.834Z,20.70
2018-05-31T22:48:53.925Z,20.70
2018-05-31T22:51:20.025Z,20.60
2018-05-31T22:53:46.122Z,20.60
2018-05-31T22:56:12.231Z,20.60
2018-05-31T22:58:38.321Z,20.50
2018-05-31T23:01:05.154Z,20.30
2018-05-31T23:03:31.994Z,20.30
2018-05-31T23:05:58.850Z,20.20
2018-05-31T23:11:21.592Z,20.10
2018-05-31T23:13:47.690Z,20.00
2018-05-31T23:16:13.786Z,20.10
2018-05-31T23:18:39.878Z,20.00
2018-05-31T23:21:06.012Z,20.00
2018-05-31T23:23:32.859Z,20.00
2018-05-31T23:25:59.704Z,20.00
2018-05-31T23:28:26.533Z,20.00
2018-05-31T23:30:52.621Z,20.00
2018-05-31T23:33:18.723Z,20.00
2018-05-31T23:35:44.819Z,20.00
2018-05-31T23:38:11.662Z,20.00
2018-05-31T23:40:38.497Z,20.10
2018-05-31T23:43:04.606Z,20.10
2018-05-31T23:45:30.702Z,20.10
2018-05-31T23:47:56.802Z,20.10
2018-05-31T23:50:22.911Z,20.20
2018-05-31T23:52:49.771Z,20.30
2018-05-31T23:55:15.868Z,20.20
2018-05-31T23:57:41.970Z,20.20
